createdAt,value
2022-08-21T00:01:29.626Z,46.00
2022-08-21T00:11:37.567Z,46.00
2022-08-21T00:21:44.827Z,44.00
2022-08-21T00:31:51.545Z,46.00
2022-08-21T00:41:58.585Z,46.00
2022-08-21T00:52:06.405Z,44.00
2022-08-21T01:02:13.558Z,46.00
2022-08-21T01:12:20.455Z,46.00
2022-08-21T01:22:27.612Z,46.00
2022-08-21T01:32:34.722Z,44.00
2022-08-21T01:42:42.261Z,44.00
2022-08-21T01:52:50.239Z,46.00
2022-08-21T02:02:57.757Z,46.00
2022-08-21T02:14:33.467Z,52.00
2022-08-21T04:10:45.635Z,44.00
2022-08-21T05:45:44.292Z,52.00
2022-08-21T05:55:50.405Z,46.00
2022-08-21T06:06:03.014Z,48.00
2022-08-21T06:16:02.032Z,48.00
2022-08-21T06:26:10.410Z,42.00
2022-08-21T06:36:17.281Z,46.00
2022-08-21T06:46:23.468Z,46.00
2022-08-21T06:56:29.529Z,44.00
2022-08-21T07:04:08.251Z,44.00
2022-08-21T07:14:20.126Z,44.00
2022-08-21T07:24:28.095Z,42.00
2022-08-21T07:34:35.151Z,42.00
2022-08-21T07:44:42.391Z,46.00
2022-08-21T07:54:50.321Z,44.00
2022-08-21T08:04:57.663Z,48.00
2022-08-21T08:15:04.934Z,50.00
2022-08-21T08:25:12.337Z,50.00
2022-08-21T08:35:19.673Z,44.00
2022-08-21T08:45:31.718Z,44.00
2022-08-21T08:55:39.281Z,44.00
2022-08-21T09:05:45.084Z,48.00
2022-08-21T09:15:52.046Z,44.00
2022-08-21T09:25:58.606Z,40.00
2022-08-21T09:36:05.380Z,44.00
2022-08-21T09:46:12.276Z,44.00
2022-08-21T10:08:13.792Z,46.00
2022-08-21T10:24:56.724Z,40.00
2022-08-21T10:48:19.947Z,40.00
2022-08-21T11:03:51.168Z,32.00
2022-08-21T11:14:03.872Z,30.00
2022-08-21T11:25:36.521Z,42.00
2022-08-21T11:46:19.797Z,50.00
2022-08-21T11:56:27.828Z,48.00
2022-08-21T12:07:58.095Z,50.00
2022-08-21T12:18:05.836Z,52.00
2022-08-21T12:29:33.226Z,50.00
2022-08-21T12:39:40.736Z,52.00
2022-08-21T12:49:48.229Z,48.00
2022-08-21T12:59:55.742Z,50.00
2022-08-21T13:10:02.817Z,50.00
2022-08-21T13:20:14.180Z,54.00
2022-08-21T13:31:41.152Z,54.00
2022-08-21T13:41:47.053Z,54.00
2022-08-21T13:57:12.998Z,54.00
2022-08-21T14:12:37.388Z,52.00
2022-08-21T14:22:44.632Z,52.00
2022-08-21T15:02:04.338Z,52.00
2022-08-21T15:54:44.612Z,28.00
2022-08-21T16:11:29.036Z,28.00
2022-08-21T17:02:40.467Z,52.00
2022-08-21T17:12:46.236Z,50.00
2022-08-21T17:24:13.977Z,50.00
2022-08-21T17:34:21.349Z,50.00
2022-08-21T17:44:28.688Z,52.00
2022-08-21T17:54:35.699Z,52.00
2022-08-21T18:04:43.174Z,52.00
2022-08-21T18:14:50.553Z,52.00
2022-08-21T18:24:57.587Z,50.00
2022-08-21T18:36:24.369Z,48.00
2022-08-21T18:51:49.719Z,44.00
2022-08-21T19:04:43.868Z,46.00
2022-08-21T19:14:46.827Z,46.00
2022-08-21T19:27:36.422Z,46.00
2022-08-21T19:37:42.332Z,40.00
2022-08-21T19:53:08.549Z,44.00
2022-08-21T20:11:12.013Z,40.00
2022-08-21T20:29:12.599Z,40.00
2022-08-21T21:16:18.677Z,32.00
2022-08-21T21:26:23.764Z,32.00
